Time;durP1;ratioP1;P1;durP2;ratioP2;P2;SDS_P1;SDS_P2;PMS_P1;PMS_P2;Temp;Humidity;BMP_temperature;BMP_pressure;BME280_temperature;BME280_humidity;BME280_pressure;Samples;Min_cycle;Max_cycle;Signal;HPM_P1;HPM_P2
2023/11/28 00:10:31;;;;;;;36.5;23.7;;;;;;;-1.1;82.92;;;;;
2023/11/28 00:21:31;;;;;;;36.5;23.7;;;;;;;-1.09;83.12;;;;;
2023/11/28 00:32:31;;;;;;;36;21.4;;;;;;;-1.19;83.73;;;;;
2023/11/28 00:42:31;;;;;;;36;21.4;;;;;;;-1.17;83.79;;;;;
2023/11/28 00:52:31;;;;;;;36;21.4;;;;;;;-1.25;84.38;;;;;
2023/11/28 01:02:31;;;;;;;41.4;23.3;;;;;;;-1.22;84.6;;;;;
2023/11/28 01:13:31;;;;;;;41.4;23.3;;;;;;;-1.18;84.37;;;;;
2023/11/28 01:23:31;;;;;;;41.4;23.3;;;;;;;-1.4;85.35;;;;;
2023/11/28 01:34:31;;;;;;;39.1;22;;;;;;;-1.25;85.4;;;;;
2023/11/28 01:44:31;;;;;;;39.1;22;;;;;;;-1.69;86.82;;;;;
2023/11/28 01:55:31;;;;;;;39.1;22;;;;;;;-1.42;86.03;;;;;
2023/11/28 02:06:31;;;;;;;31.5;19.4;;;;;;;-1.52;86.15;;;;;
2023/11/28 02:16:31;;;;;;;31.5;19.4;;;;;;;-1.55;86.43;;;;;
2023/11/28 02:26:31;;;;;;;31.5;19.4;;;;;;;-1.57;86.68;;;;;
2023/11/28 02:37:31;;;;;;;33.9;20.7;;;;;;;-1.47;86.18;;;;;
2023/11/28 02:48:31;;;;;;;33.9;20.7;;;;;;;-1.54;86.4;;;;;
2023/11/28 02:58:31;;;;;;;31.5;17.7;;;;;;;-1.6;86.7;;;;;
2023/11/28 03:09:31;;;;;;;31.5;17.7;;;;;;;-1.5;86.76;;;;;
2023/11/28 03:19:31;;;;;;;31.5;17.7;;;;;;;-1.45;86.61;;;;;
2023/11/28 03:30:31;;;;;;;24.7;16.8;;;;;;;-1.35;86.28;;;;;
2023/11/28 03:41:31;;;;;;;24.7;16.8;;;;;;;-1.34;86.36;;;;;
2023/11/28 03:52:31;;;;;;;24.7;16.8;;;;;;;-1.46;86.89;;;;;
2023/11/28 04:03:31;;;;;;;27.1;15.3;;;;;;;-1.43;86.92;;;;;
2023/11/28 04:13:31;;;;;;;27.1;15.3;;;;;;;-1.42;87.02;;;;;
2023/11/28 04:24:31;;;;;;;27.1;15.3;;;;;;;-1.29;86.77;;;;;
2023/11/28 04:34:31;;;;;;;23.7;15.5;;;;;;;-1.37;87.11;;;;;
2023/11/28 04:44:32;;;;;;;23.7;15.5;;;;;;;-1.44;87.46;;;;;
2023/11/28 04:55:31;;;;;;;23.7;15.5;;;;;;;-1.41;87.64;;;;;
2023/11/28 05:06:32;;;;;;;20.8;13.4;;;;;;;-1.4;87.81;;;;;
2023/11/28 05:16:31;;;;;;;20.8;13.4;;;;;;;-1.48;88.5;;;;;
2023/11/28 05:26:31;;;;;;;20.8;13.4;;;;;;;-1.28;88.15;;;;;
2023/11/28 05:36:31;;;;;;;23.7;12.5;;;;;;;-1.07;87.89;;;;;
2023/11/28 05:47:31;;;;;;;23.7;12.5;;;;;;;-1.13;88.14;;;;;
2023/11/28 05:58:31;;;;;;;18.7;10.8;;;;;;;-1.17;88.53;;;;;
2023/11/28 06:09:32;;;;;;;18.7;10.8;;;;;;;-1.02;88.08;;;;;
2023/11/28 06:19:32;;;;;;;18.7;10.8;;;;;;;-0.99;88.18;;;;;
2023/11/28 06:30:31;;;;;;;17.3;9.7;;;;;;;-0.88;87.97;;;;;
2023/11/28 06:41:31;;;;;;;17.3;9.7;;;;;;;-0.84;87.63;;;;;
2023/11/28 06:51:32;;;;;;;17.3;9.7;;;;;;;-0.85;87.65;;;;;
2023/11/28 07:02:32;;;;;;;16.5;8.4;;;;;;;-0.68;87.38;;;;;
2023/11/28 07:13:32;;;;;;;16.5;8.4;;;;;;;-0.74;87.49;;;;;
2023/11/28 07:23:33;;;;;;;16.5;8.4;;;;;;;-0.48;87.17;;;;;
2023/11/28 07:34:31;;;;;;;18;10.4;;;;;;;-0.46;86.66;;;;;
2023/11/28 07:44:31;;;;;;;18;10.4;;;;;;;-0.38;86.59;;;;;
2023/11/28 07:54:31;;;;;;;18;10.4;;;;;;;-0.31;85.99;;;;;
2023/11/28 08:05:31;;;;;;;14.7;9.4;;;;;;;0.13;85.7;;;;;
2023/11/28 08:16:31;;;;;;;14.7;9.4;;;;;;;0.4;84.38;;;;;
2023/11/28 08:27:31;;;;;;;19.3;10.4;;;;;;;0.5;84.65;;;;;
2023/11/28 08:37:31;;;;;;;19.3;10.4;;;;;;;0.51;83.81;;;;;
2023/11/28 08:47:31;;;;;;;19.3;10.4;;;;;;;0.56;84.33;;;;;
2023/11/28 08:57:33;;;;;;;17.1;10.2;;;;;;;0.71;83.66;;;;;
2023/11/28 09:08:31;;;;;;;17.1;10.2;;;;;;;0.89;82.97;;;;;
2023/11/28 09:19:31;;;;;;;17.1;10.2;;;;;;;0.86;83.64;;;;;
2023/11/28 09:30:31;;;;;;;19.5;12.1;;;;;;;1.08;82.89;;;;;
2023/11/28 09:40:31;;;;;;;19.5;12.1;;;;;;;1.06;82.39;;;;;
2023/11/28 09:50:31;;;;;;;19.5;12.1;;;;;;;0.79;83.51;;;;;
2023/11/28 10:01:31;;;;;;;18.2;10.5;;;;;;;1.05;82.77;;;;;
2023/11/28 10:12:31;;;;;;;18.2;10.5;;;;;;;1.19;82.64;;;;;
2023/11/28 10:23:31;;;;;;;18.2;10.5;;;;;;;1.26;82.96;;;;;
2023/11/28 10:34:35;;;;;;;22.5;11.7;;;;;;;1.14;82.91;;;;;
2023/11/28 10:44:31;;;;;;;22.5;11.7;;;;;;;1.3;82.59;;;;;
2023/11/28 10:54:33;;;;;;;22.5;11.7;;;;;;;1.04;82.86;;;;;
2023/11/28 11:05:31;;;;;;;22.7;12.8;;;;;;;1.4;81.39;;;;;
2023/11/28 11:15:31;;;;;;;22.7;12.8;;;;;;;1.38;82.11;;;;;
2023/11/28 11:26:31;;;;;;;31.7;15.1;;;;;;;1.54;81.56;;;;;
2023/11/28 11:37:31;;;;;;;31.7;15.1;;;;;;;1.63;81.47;;;;;
2023/11/28 11:47:31;;;;;;;31.7;15.1;;;;;;;1.56;81.6;;;;;
2023/11/28 11:57:31;;;;;;;22.4;12.8;;;;;;;1.82;80.52;;;;;
2023/11/28 12:08:36;;;;;;;22.4;12.8;;;;;;;1.08;81.57;;;;;
2023/11/28 12:18:32;;;;;;;22.4;12.8;;;;;;;1;81.95;;;;;
2023/11/28 12:28:31;;;;;;;19.1;12.3;;;;;;;0.85;83.34;;;;;
2023/11/28 12:38:31;;;;;;;19.1;12.3;;;;;;;1.19;82.63;;;;;
2023/11/28 12:48:31;;;;;;;19.1;12.3;;;;;;;1.17;81.79;;;;;
2023/11/28 12:58:32;;;;;;;21;12.8;;;;;;;0.82;82.77;;;;;
2023/11/28 13:09:35;;;;;;;21;12.8;;;;;;;0.73;83.64;;;;;
2023/11/28 13:19:31;;;;;;;21;12.8;;;;;;;0.52;84.08;;;;;
2023/11/28 13:29:32;;;;;;;17.8;9.8;;;;;;;0.66;84.24;;;;;
2023/11/28 13:40:31;;;;;;;17.8;9.8;;;;;;;0.7;83.78;;;;;
2023/11/28 13:50:31;;;;;;;17.8;9.8;;;;;;;0.73;84.18;;;;;
2023/11/28 14:01:32;;;;;;;15.2;8.5;;;;;;;0.51;84.66;;;;;
2023/11/28 14:11:32;;;;;;;15.2;8.5;;;;;;;0.71;84.34;;;;;
2023/11/28 14:22:31;;;;;;;15.2;8.5;;;;;;;0.81;83.88;;;;;
2023/11/28 14:33:32;;;;;;;14.7;7.9;;;;;;;0.64;83.62;;;;;
2023/11/28 14:44:32;;;;;;;14.7;7.9;;;;;;;0.4;83.75;;;;;
2023/11/28 14:55:31;;;;;;;96.8;50.4;;;;;;;0.31;83.54;;;;;
2023/11/28 15:05:32;;;;;;;96.8;50.4;;;;;;;0.33;83.65;;;;;
2023/11/28 15:16:33;;;;;;;96.8;50.4;;;;;;;0.36;83.61;;;;;
2023/11/28 15:27:32;;;;;;;22.2;14.4;;;;;;;0.25;83.84;;;;;
2023/11/28 15:37:32;;;;;;;22.2;14.4;;;;;;;0.18;83.92;;;;;
2023/11/28 15:48:32;;;;;;;22.2;14.4;;;;;;;0.14;83.99;;;;;
2023/11/28 15:59:32;;;;;;;13.4;7.6;;;;;;;0.1;84.13;;;;;
2023/11/28 16:09:33;;;;;;;13.4;7.6;;;;;;;0.04;84.03;;;;;
2023/11/28 16:19:32;;;;;;;13.4;7.6;;;;;;;0;83.79;;;;;
2023/11/28 16:29:33;;;;;;;14.8;7.7;;;;;;;-0.09;83.85;;;;;
2023/11/28 16:40:32;;;;;;;14.8;7.7;;;;;;;-0.1;83.42;;;;;
2023/11/28 16:50:32;;;;;;;14.8;7.7;;;;;;;-0.16;83.27;;;;;
2023/11/28 17:00:33;;;;;;;24.1;13.7;;;;;;;-0.07;82.97;;;;;
2023/11/28 17:10:34;;;;;;;24.1;13.7;;;;;;;-0.07;83.04;;;;;
2023/11/28 17:21:32;;;;;;;24.1;13.7;;;;;;;-0.15;83.14;;;;;
2023/11/28 17:32:32;;;;;;;21.2;11.9;;;;;;;-0.35;83.06;;;;;
2023/11/28 17:43:31;;;;;;;21.2;11.9;;;;;;;-0.46;82.76;;;;;
2023/11/28 17:53:32;;;;;;;21.2;11.9;;;;;;;-0.45;82.89;;;;;
2023/11/28 18:03:32;;;;;;;14.1;9.2;;;;;;;-0.57;83.49;;;;;
2023/11/28 18:14:32;;;;;;;14.1;9.2;;;;;;;-0.74;83.8;;;;;
2023/11/28 18:25:32;;;;;;;21.1;13.1;;;;;;;-0.74;84.01;;;;;
2023/11/28 18:36:32;;;;;;;21.1;13.1;;;;;;;-0.77;83.84;;;;;
2023/11/28 18:47:32;;;;;;;21.1;13.1;;;;;;;-0.85;83.47;;;;;
2023/11/28 18:58:32;;;;;;;24.5;13.3;;;;;;;-0.87;82.97;;;;;
2023/11/28 19:08:32;;;;;;;24.5;13.3;;;;;;;-1;82.57;;;;;
2023/11/28 19:18:32;;;;;;;24.5;13.3;;;;;;;-0.99;82.32;;;;;
2023/11/28 19:28:32;;;;;;;32.2;15.4;;;;;;;-1.12;82.29;;;;;
2023/11/28 19:39:32;;;;;;;32.2;15.4;;;;;;;-1.12;82.39;;;;;
2023/11/28 19:49:32;;;;;;;32.2;15.4;;;;;;;-1.15;82.32;;;;;
2023/11/28 20:00:38;;;;;;;25.5;15.1;;;;;;;-1.26;82.39;;;;;
2023/11/28 20:11:32;;;;;;;25.5;15.1;;;;;;;-1.25;82.86;;;;;
2023/11/28 20:21:32;;;;;;;25.5;15.1;;;;;;;-1.44;82.76;;;;;
2023/11/28 20:32:32;;;;;;;19.6;11.8;;;;;;;-1.48;82.62;;;;;
2023/11/28 20:43:32;;;;;;;19.6;11.8;;;;;;;-1.41;82.67;;;;;
2023/11/28 20:54:32;;;;;;;23.1;12.1;;;;;;;-1.38;82.65;;;;;
2023/11/28 21:04:32;;;;;;;23.1;12.1;;;;;;;-1.43;82.71;;;;;
2023/11/28 21:15:32;;;;;;;23.1;12.1;;;;;;;-1.51;83.49;;;;;
2023/11/28 21:25:32;;;;;;;20.8;11.7;;;;;;;-1.47;84.37;;;;;
2023/11/28 21:35:32;;;;;;;20.8;11.7;;;;;;;-1.43;85.15;;;;;
2023/11/28 21:45:32;;;;;;;20.8;11.7;;;;;;;-1.56;85.73;;;;;
2023/11/28 21:56:32;;;;;;;17.2;9;;;;;;;-1.54;85.96;;;;;
2023/11/28 22:07:32;;;;;;;17.2;9;;;;;;;-1.66;86.1;;;;;
2023/11/28 22:17:32;;;;;;;17.2;9;;;;;;;-1.64;86.36;;;;;
2023/11/28 22:27:32;;;;;;;17.7;11.2;;;;;;;-1.56;86.33;;;;;
2023/11/28 22:38:32;;;;;;;17.7;11.2;;;;;;;-1.67;86.44;;;;;
2023/11/28 22:49:32;;;;;;;17.7;11.2;;;;;;;-1.8;86.77;;;;;
2023/11/28 22:59:32;;;;;;;23.4;11.4;;;;;;;-1.69;86.23;;;;;
2023/11/28 23:09:33;;;;;;;23.4;11.4;;;;;;;-1.68;85.42;;;;;
2023/11/28 23:19:32;;;;;;;23.4;11.4;;;;;;;-1.83;83.63;;;;;
2023/11/28 23:29:32;;;;;;;13.7;10.7;;;;;;;-1.88;83.6;;;;;
2023/11/28 23:40:32;;;;;;;13.7;10.7;;;;;;;-1.95;84.33;;;;;
2023/11/28 23:50:32;;;;;;;13.7;10.7;;;;;;;-1.99;84.64;;;;;
